createdAt,value
2022-10-16T00:01:12.869Z,26.90
2022-10-16T00:03:40.608Z,27.00
2022-10-16T00:06:08.467Z,27.00
2022-10-16T00:08:36.410Z,27.00
2022-10-16T00:11:04.880Z,27.10
2022-10-16T00:13:34.224Z,27.10
2022-10-16T00:16:03.508Z,27.10
2022-10-16T00:18:31.861Z,27.10
2022-10-16T00:21:03.805Z,27.10
2022-10-16T00:23:31.564Z,27.10
2022-10-16T00:25:59.783Z,27.10
2022-10-16T00:28:27.548Z,27.20
2022-10-16T00:30:56.730Z,27.20
2022-10-16T00:33:24.654Z,27.10
2022-10-16T00:35:52.435Z,27.20
2022-10-16T00:38:20.155Z,27.10
2022-10-16T00:40:47.946Z,27.10
2022-10-16T00:43:16.340Z,27.20
2022-10-16T00:45:44.031Z,27.20
2022-10-16T00:48:14.660Z,27.20
2022-10-16T00:50:44.280Z,27.30
2022-10-16T00:53:13.018Z,27.30
2022-10-16T00:55:42.500Z,27.40
2022-10-16T00:58:10.504Z,27.40
2022-10-16T01:00:38.200Z,27.50
2022-10-16T01:03:26.353Z,27.40
2022-10-16T01:05:59.321Z,27.50
2022-10-16T01:08:29.346Z,27.50
2022-10-16T01:10:59.470Z,27.50
2022-10-16T01:13:29.376Z,27.60
2022-10-16T01:15:58.643Z,27.60
2022-10-16T01:18:30.958Z,27.60
2022-10-16T01:21:00.892Z,27.60
2022-10-16T01:23:34.841Z,27.60
2022-10-16T01:26:16.530Z,27.60
2022-10-16T01:28:48.193Z,27.60
2022-10-16T01:31:17.006Z,27.60
2022-10-16T01:33:45.757Z,27.70
2022-10-16T01:36:15.380Z,27.70
2022-10-16T01:38:43.069Z,27.70
2022-10-16T01:41:12.283Z,27.60
2022-10-16T01:43:41.109Z,27.70
2022-10-16T01:46:10.155Z,27.70
2022-10-16T01:48:37.807Z,27.70
2022-10-16T01:51:07.825Z,27.70
2022-10-16T01:53:35.589Z,27.70
2022-10-16T01:56:03.561Z,27.70
2022-10-16T01:58:34.949Z,27.70
2022-10-16T02:01:03.477Z,27.70
2022-10-16T02:03:33.237Z,27.70
2022-10-16T02:06:00.930Z,27.70
2022-10-16T02:08:29.963Z,27.70
2022-10-16T02:10:57.822Z,27.70
2022-10-16T02:13:27.952Z,27.70
2022-10-16T02:15:55.730Z,27.70
2022-10-16T02:18:23.444Z,27.70
2022-10-16T02:20:54.661Z,27.70
2022-10-16T02:23:26.790Z,27.70
2022-10-16T02:25:54.753Z,27.70
2022-10-16T02:28:25.851Z,27.70
2022-10-16T02:30:54.626Z,27.70
2022-10-16T02:33:22.304Z,27.70
2022-10-16T02:35:49.981Z,27.70
2022-10-16T02:38:19.076Z,27.70
2022-10-16T02:40:46.807Z,27.70
2022-10-16T02:43:14.475Z,27.70
2022-10-16T02:45:42.164Z,27.70
2022-10-16T02:48:09.858Z,27.70
2022-10-16T02:50:37.529Z,27.70
2022-10-16T02:53:05.195Z,27.60
2022-10-16T02:55:34.219Z,27.70
2022-10-16T02:58:01.881Z,27.60
2022-10-16T03:00:29.710Z,27.60
2022-10-16T03:02:57.432Z,27.60
2022-10-16T03:05:25.127Z,27.60
2022-10-16T03:07:53.511Z,27.60
2022-10-16T03:10:21.173Z,27.60
2022-10-16T03:12:50.266Z,27.60
2022-10-16T03:15:18.049Z,27.60
2022-10-16T03:17:45.704Z,27.60
2022-10-16T03:20:13.491Z,27.60
2022-10-16T03:22:41.164Z,27.60
2022-10-16T03:25:09.611Z,27.50
2022-10-16T03:27:37.277Z,27.50
2022-10-16T03:30:07.187Z,27.60
2022-10-16T03:35:03.585Z,27.50
2022-10-16T03:37:31.257Z,27.50
2022-10-16T03:39:58.944Z,27.50
2022-10-16T03:42:26.632Z,27.50
2022-10-16T03:44:54.376Z,27.40
2022-10-16T03:47:24.928Z,27.50
2022-10-16T03:49:52.895Z,27.50
2022-10-16T03:52:20.643Z,27.50
2022-10-16T03:54:48.400Z,27.40
2022-10-16T03:57:16.103Z,27.40
2022-10-16T03:59:43.806Z,27.40
2022-10-16T04:02:11.527Z,27.40
2022-10-16T04:04:40.531Z,27.40
2022-10-16T04:07:08.209Z,27.40
2022-10-16T04:09:35.871Z,27.30
2022-10-16T04:12:03.569Z,27.40
2022-10-16T04:14:31.448Z,27.40
2022-10-16T04:16:59.099Z,27.40
2022-10-16T04:19:27.348Z,27.30
2022-10-16T04:21:57.232Z,27.30
2022-10-16T04:24:25.054Z,27.30
2022-10-16T04:26:52.716Z,27.30
2022-10-16T04:29:20.440Z,27.30
2022-10-16T04:31:48.654Z,27.30
2022-10-16T04:34:16.323Z,27.30
2022-10-16T04:36:43.988Z,27.30
2022-10-16T04:39:12.980Z,27.20
2022-10-16T04:41:40.812Z,27.20
2022-10-16T04:44:08.441Z,27.20
2022-10-16T04:46:36.102Z,27.20
2022-10-16T04:49:03.805Z,27.20
2022-10-16T04:51:31.499Z,27.20
2022-10-16T04:53:59.174Z,27.20
2022-10-16T04:56:28.168Z,27.20
2022-10-16T04:58:55.821Z,27.20
2022-10-16T05:01:23.465Z,27.10
2022-10-16T05:03:51.168Z,27.10
2022-10-16T05:06:18.867Z,27.10
2022-10-16T05:08:46.559Z,27.10
2022-10-16T05:11:14.214Z,27.10
2022-10-16T05:13:43.232Z,27.10
2022-10-16T05:16:10.873Z,27.00
2022-10-16T05:18:38.538Z,27.00
2022-10-16T05:21:06.729Z,27.10
2022-10-16T05:23:35.396Z,27.00
2022-10-16T05:26:03.072Z,27.00
2022-10-16T05:28:31.384Z,27.00
2022-10-16T05:31:01.418Z,27.00
2022-10-16T05:33:29.050Z,27.00
2022-10-16T05:35:56.735Z,27.00
2022-10-16T05:38:24.425Z,27.00
2022-10-16T05:40:55.048Z,27.00
2022-10-16T05:43:22.745Z,27.00
2022-10-16T05:45:56.711Z,26.90
2022-10-16T05:48:25.778Z,26.90
2022-10-16T05:50:59.163Z,26.90
2022-10-16T05:53:27.311Z,26.90
2022-10-16T05:55:55.490Z,26.90
2022-10-16T05:58:23.270Z,26.80
2022-10-16T06:00:57.404Z,26.80
2022-10-16T06:03:39.829Z,26.80
2022-10-16T06:06:12.402Z,26.80
2022-10-16T06:08:40.652Z,26.80
2022-10-16T06:11:08.947Z,26.80
2022-10-16T06:13:36.643Z,26.80
2022-10-16T06:16:04.968Z,26.80
2022-10-16T06:18:33.958Z,26.70
2022-10-16T06:21:01.584Z,26.70
2022-10-16T06:23:30.383Z,26.70
2022-10-16T06:26:06.562Z,26.70
2022-10-16T06:28:34.711Z,26.70
2022-10-16T06:31:05.612Z,26.60
2022-10-16T06:33:37.247Z,26.60
2022-10-16T06:36:05.282Z,26.60
2022-10-16T06:38:33.087Z,26.60
2022-10-16T06:41:00.790Z,26.60
2022-10-16T06:43:30.904Z,26.60
2022-10-16T06:45:58.830Z,26.60
2022-10-16T06:48:26.590Z,26.60
2022-10-16T06:50:59.436Z,26.60
2022-10-16T06:53:27.664Z,26.60
2022-10-16T06:55:55.355Z,26.50
2022-10-16T06:58:23.019Z,26.50
2022-10-16T07:00:50.772Z,26.50
2022-10-16T07:03:18.415Z,26.50
2022-10-16T07:05:46.257Z,26.50
2022-10-16T07:08:15.243Z,26.50
2022-10-16T07:10:42.888Z,26.50
2022-10-16T07:13:13.979Z,26.50
2022-10-16T07:15:41.755Z,26.50
2022-10-16T07:18:09.528Z,26.50
2022-10-16T07:20:38.303Z,26.50
2022-10-16T07:23:05.973Z,26.50
2022-10-16T07:25:34.964Z,26.50
2022-10-16T07:28:02.610Z,26.50
2022-10-16T07:30:30.228Z,26.40
2022-10-16T07:32:57.851Z,26.40
2022-10-16T07:35:25.513Z,26.40
2022-10-16T07:37:53.205Z,26.40
2022-10-16T07:40:20.909Z,26.40
2022-10-16T07:42:49.923Z,26.40
2022-10-16T07:45:17.566Z,26.40
2022-10-16T07:47:45.230Z,26.40
2022-10-16T07:50:12.863Z,26.40
2022-10-16T07:52:40.549Z,26.40
2022-10-16T07:55:08.982Z,26.30
2022-10-16T07:57:36.660Z,26.40
2022-10-16T08:00:06.713Z,26.30
2022-10-16T08:02:40.051Z,26.40
2022-10-16T08:05:08.569Z,26.40
2022-10-16T08:07:36.197Z,26.40
2022-10-16T08:10:04.016Z,26.30
2022-10-16T08:12:31.646Z,26.30
2022-10-16T08:14:59.327Z,26.30
2022-10-16T08:17:28.767Z,26.30
2022-10-16T08:19:56.754Z,26.30
2022-10-16T08:22:24.464Z,26.30
2022-10-16T08:24:52.175Z,26.30
2022-10-16T08:27:19.860Z,26.20
2022-10-16T08:29:47.556Z,26.10
2022-10-16T08:32:15.221Z,26.10
2022-10-16T08:34:44.237Z,26.10
2022-10-16T08:37:12.188Z,26.20
2022-10-16T08:39:40.007Z,26.20
2022-10-16T08:42:17.306Z,26.20
2022-10-16T08:45:11.014Z,26.20
2022-10-16T08:47:47.691Z,26.30
2022-10-16T08:50:19.520Z,26.30
2022-10-16T08:52:47.611Z,26.30
2022-10-16T08:55:21.599Z,26.40
2022-10-16T08:57:49.245Z,26.30
2022-10-16T09:00:17.383Z,26.20
2022-10-16T09:02:47.383Z,26.00
2022-10-16T09:05:39.952Z,25.90
2022-10-16T09:08:13.265Z,25.80
2022-10-16T09:10:46.202Z,25.80
2022-10-16T09:13:20.208Z,25.80
2022-10-16T09:15:50.149Z,25.90
2022-10-16T09:18:20.660Z,25.90
2022-10-16T09:20:53.096Z,26.00
2022-10-16T09:23:21.728Z,26.00
2022-10-16T09:25:50.735Z,25.80
2022-10-16T09:28:19.751Z,25.70
2022-10-16T09:30:49.311Z,25.80
2022-10-16T09:33:17.264Z,25.80
2022-10-16T09:35:45.866Z,26.00
2022-10-16T09:38:24.934Z,25.90
2022-10-16T09:40:58.978Z,25.70
2022-10-16T09:43:33.715Z,25.60
2022-10-16T09:46:02.491Z,25.60
2022-10-16T09:48:33.300Z,25.60
2022-10-16T09:51:01.777Z,25.60
2022-10-16T09:53:40.646Z,25.60
2022-10-16T09:56:11.718Z,25.60
2022-10-16T09:58:44.476Z,25.60
2022-10-16T10:01:14.677Z,25.60
2022-10-16T10:03:43.031Z,25.60
2022-10-16T10:06:19.482Z,25.50
2022-10-16T10:08:59.569Z,25.60
2022-10-16T10:11:48.081Z,25.60
2022-10-16T10:14:19.940Z,25.60
2022-10-16T10:16:47.840Z,25.60
2022-10-16T10:19:19.020Z,25.60
2022-10-16T10:21:46.877Z,25.70
2022-10-16T10:24:16.774Z,25.60
2022-10-16T10:26:50.308Z,25.70
2022-10-16T10:29:24.109Z,25.80
2022-10-16T10:31:54.487Z,25.90
2022-10-16T10:34:30.628Z,26.00
2022-10-16T10:37:03.787Z,25.90
2022-10-16T10:39:36.308Z,26.00
2022-10-16T10:42:14.016Z,26.00
2022-10-16T10:44:57.460Z,26.10
2022-10-16T10:47:29.068Z,26.10
2022-10-16T10:50:01.092Z,26.20
2022-10-16T10:52:37.078Z,26.20
2022-10-16T10:55:11.974Z,26.20
2022-10-16T10:57:42.440Z,26.30
2022-10-16T11:00:18.178Z,26.40
2022-10-16T11:02:48.863Z,26.50
2022-10-16T11:05:31.633Z,26.50
2022-10-16T11:08:00.654Z,26.50
2022-10-16T11:10:30.875Z,26.50
2022-10-16T11:13:00.642Z,26.50
2022-10-16T11:15:30.303Z,26.50
2022-10-16T11:18:00.839Z,26.60
2022-10-16T11:20:29.905Z,26.70
2022-10-16T11:22:59.140Z,26.70
2022-10-16T11:25:29.357Z,26.70
2022-10-16T11:27:58.977Z,26.80
2022-10-16T11:30:27.600Z,26.80
2022-10-16T11:33:03.641Z,26.90
2022-10-16T11:35:39.332Z,26.80
2022-10-16T11:38:11.615Z,26.90
2022-10-16T11:40:41.994Z,26.90
2022-10-16T11:43:15.695Z,27.00
2022-10-16T11:45:44.536Z,26.90
2022-10-16T11:48:17.935Z,26.90
2022-10-16T11:50:47.673Z,27.00
2022-10-16T11:53:17.881Z,27.00
2022-10-16T11:55:47.496Z,27.00
2022-10-16T11:58:19.795Z,27.00
2022-10-16T12:00:48.525Z,27.00
2022-10-16T12:03:20.065Z,27.00
2022-10-16T12:05:57.628Z,27.00
2022-10-16T12:08:25.350Z,27.00
2022-10-16T12:10:56.141Z,27.00
2022-10-16T12:13:33.933Z,27.00
2022-10-16T12:16:09.192Z,27.00
2022-10-16T12:18:36.882Z,27.20
2022-10-16T12:21:07.477Z,28.10
2022-10-16T12:23:35.336Z,29.70
2022-10-16T12:26:04.380Z,31.30
2022-10-16T12:28:32.753Z,32.60
2022-10-16T12:31:02.239Z,33.10
2022-10-16T12:33:31.002Z,33.50
2022-10-16T12:35:58.864Z,34.00
2022-10-16T12:38:28.378Z,33.90
2022-10-16T12:41:00.839Z,33.90
2022-10-16T12:43:43.223Z,33.80
2022-10-16T12:46:39.439Z,33.80
2022-10-16T12:49:17.526Z,33.70
2022-10-16T12:51:45.309Z,33.90
2022-10-16T12:54:14.811Z,33.90
2022-10-16T12:56:47.250Z,34.00
2022-10-16T12:59:21.640Z,33.90
2022-10-16T13:01:58.836Z,33.60
2022-10-16T13:04:36.867Z,33.90
2022-10-16T13:07:13.573Z,32.50
2022-10-16T13:09:46.116Z,31.60
2022-10-16T13:12:28.494Z,30.80
2022-10-16T13:15:14.069Z,30.20
2022-10-16T13:17:44.615Z,29.70
2022-10-16T13:20:19.272Z,29.30
2022-10-16T13:22:55.248Z,29.00
2022-10-16T13:25:29.808Z,28.70
2022-10-16T13:27:59.005Z,28.30
2022-10-16T13:30:30.712Z,28.20
2022-10-16T13:33:01.024Z,28.10
2022-10-16T13:35:29.855Z,27.90
2022-10-16T13:38:15.357Z,27.70
2022-10-16T13:40:56.867Z,27.70
2022-10-16T13:43:27.108Z,27.40
2022-10-16T13:45:57.526Z,27.20
2022-10-16T13:48:25.347Z,27.10
2022-10-16T13:51:03.613Z,27.00
2022-10-16T13:53:32.949Z,27.10
2022-10-16T13:56:01.110Z,27.10
2022-10-16T13:58:28.884Z,27.00
2022-10-16T14:00:59.444Z,26.90
2022-10-16T14:03:27.305Z,26.90
2022-10-16T14:05:55.819Z,26.80
2022-10-16T14:08:24.316Z,26.80
2022-10-16T14:10:52.643Z,26.80
2022-10-16T14:13:21.344Z,26.70
2022-10-16T14:15:49.473Z,26.80
2022-10-16T14:18:21.729Z,26.80
2022-10-16T14:20:49.538Z,26.70
2022-10-16T14:23:27.181Z,26.70
2022-10-16T14:25:54.868Z,26.70
2022-10-16T14:28:23.754Z,26.70
2022-10-16T14:30:52.251Z,26.60
2022-10-16T14:33:26.184Z,26.50
2022-10-16T14:36:05.288Z,26.60
2022-10-16T14:38:33.100Z,26.60
2022-10-16T14:41:01.127Z,26.60
2022-10-16T14:43:34.239Z,26.70
2022-10-16T14:46:02.186Z,26.70
2022-10-16T14:48:31.220Z,26.70
2022-10-16T14:50:58.904Z,26.70
2022-10-16T14:53:26.627Z,26.70
2022-10-16T14:55:54.406Z,26.60
2022-10-16T14:58:22.948Z,26.70
2022-10-16T15:00:50.680Z,26.60
2022-10-16T15:03:18.425Z,26.60
2022-10-16T15:05:47.462Z,26.60
2022-10-16T15:08:15.611Z,26.60
2022-10-16T15:10:44.369Z,26.60
2022-10-16T15:13:14.492Z,26.80
2022-10-16T15:15:43.881Z,26.80
2022-10-16T15:18:11.568Z,26.80
2022-10-16T15:20:40.237Z,26.80
2022-10-16T15:23:14.877Z,26.80
2022-10-16T15:25:44.262Z,26.80
2022-10-16T15:28:12.245Z,26.80
2022-10-16T15:30:40.038Z,26.60
2022-10-16T15:33:11.993Z,26.70
2022-10-16T15:35:39.658Z,26.70
2022-10-16T15:38:09.787Z,26.70
2022-10-16T15:40:37.974Z,26.70
2022-10-16T15:43:05.648Z,26.60
2022-10-16T15:45:33.368Z,26.60
2022-10-16T15:48:01.329Z,26.50
2022-10-16T15:50:29.011Z,26.50
2022-10-16T15:52:56.685Z,26.50
2022-10-16T15:55:25.804Z,26.30
2022-10-16T15:57:53.487Z,26.30
2022-10-16T16:00:22.880Z,26.20
2022-10-16T16:02:54.048Z,26.20
2022-10-16T16:05:21.954Z,26.30
2022-10-16T16:07:49.780Z,26.40
2022-10-16T16:10:17.657Z,26.50
2022-10-16T16:12:50.352Z,26.50
2022-10-16T16:15:18.180Z,26.60
2022-10-16T16:17:45.972Z,26.60
2022-10-16T16:20:13.722Z,26.60
2022-10-16T16:22:41.452Z,26.60
2022-10-16T16:25:09.900Z,26.60
2022-10-16T16:27:39.294Z,26.50
2022-10-16T16:30:09.380Z,26.50
2022-10-16T16:32:37.145Z,26.50
2022-10-16T16:35:05.565Z,26.40
2022-10-16T16:37:33.337Z,26.40
2022-10-16T16:40:01.163Z,26.40
2022-10-16T16:42:28.921Z,26.40
2022-10-16T16:44:56.592Z,26.30
2022-10-16T16:47:25.816Z,26.30
2022-10-16T16:49:53.940Z,26.30
2022-10-16T16:52:21.616Z,26.30
2022-10-16T16:54:52.618Z,26.20
2022-10-16T16:57:20.835Z,26.20
2022-10-16T16:59:48.620Z,26.20
2022-10-16T17:02:16.482Z,26.20
2022-10-16T17:04:45.608Z,26.20
2022-10-16T17:07:13.867Z,26.10
2022-10-16T17:09:41.576Z,26.10
2022-10-16T17:12:09.262Z,26.10
2022-10-16T17:14:36.940Z,26.00
2022-10-16T17:17:06.651Z,26.00
2022-10-16T17:19:35.328Z,26.00
2022-10-16T17:22:04.323Z,26.00
2022-10-16T17:24:31.991Z,25.90
2022-10-16T17:26:59.662Z,25.90
2022-10-16T17:29:27.339Z,25.90
2022-10-16T17:31:56.973Z,25.90
2022-10-16T17:34:25.048Z,25.80
2022-10-16T17:36:53.429Z,25.80
2022-10-16T17:39:23.185Z,25.80
2022-10-16T17:41:50.834Z,25.80
2022-10-16T17:44:21.502Z,25.80
2022-10-16T17:46:49.744Z,25.80
2022-10-16T17:49:17.498Z,25.80
2022-10-16T17:51:45.241Z,25.80
2022-10-16T17:54:14.408Z,25.70
2022-10-16T17:56:43.504Z,25.70
2022-10-16T17:59:11.738Z,25.70
2022-10-16T18:01:41.397Z,25.70
2022-10-16T18:04:10.456Z,25.70
2022-10-16T18:06:38.205Z,25.70
2022-10-16T18:09:06.118Z,25.70
2022-10-16T18:11:33.939Z,25.60
2022-10-16T18:14:02.983Z,25.60
2022-10-16T18:16:31.021Z,25.60
2022-10-16T18:18:58.939Z,25.60
2022-10-16T18:21:28.082Z,25.60
2022-10-16T18:23:56.052Z,25.60
2022-10-16T18:26:23.906Z,25.60
2022-10-16T18:28:53.278Z,25.60
2022-10-16T18:31:22.923Z,25.60
2022-10-16T18:33:51.272Z,25.50
2022-10-16T18:36:20.202Z,25.50
2022-10-16T18:38:47.919Z,25.40
2022-10-16T18:41:15.655Z,25.40
2022-10-16T18:43:43.405Z,25.40
2022-10-16T18:46:12.200Z,25.40
2022-10-16T18:48:41.243Z,25.40
2022-10-16T18:51:10.433Z,25.30
2022-10-16T18:53:38.236Z,25.40
2022-10-16T18:56:06.302Z,25.30
2022-10-16T18:58:34.760Z,25.30
2022-10-16T19:01:06.196Z,25.30
2022-10-16T19:03:33.935Z,25.30
2022-10-16T19:06:03.515Z,25.30
2022-10-16T19:08:33.550Z,25.30
2022-10-16T19:11:04.313Z,25.30
2022-10-16T19:13:32.111Z,25.30
2022-10-16T19:16:09.432Z,25.30
2022-10-16T19:18:46.591Z,25.30
2022-10-16T19:21:15.701Z,25.20
2022-10-16T19:23:43.760Z,25.20
2022-10-16T19:26:12.786Z,25.20
2022-10-16T19:28:40.578Z,25.20
2022-10-16T19:31:11.392Z,25.20
2022-10-16T19:33:39.178Z,25.20
2022-10-16T19:36:10.718Z,25.20
2022-10-16T19:38:39.824Z,25.20
2022-10-16T19:41:08.690Z,25.20
2022-10-16T19:43:36.357Z,25.20
2022-10-16T19:46:05.466Z,25.20
2022-10-16T19:48:33.327Z,25.20
2022-10-16T19:51:00.978Z,25.10
2022-10-16T19:53:29.128Z,25.10
2022-10-16T19:55:58.187Z,25.10
2022-10-16T19:58:26.086Z,25.10
2022-10-16T20:00:54.573Z,25.10
2022-10-16T20:03:22.356Z,25.10
2022-10-16T20:05:53.674Z,25.10
2022-10-16T20:08:21.567Z,25.00
2022-10-16T20:10:50.225Z,25.10
2022-10-16T20:13:19.453Z,25.00
2022-10-16T20:15:47.291Z,25.00
2022-10-16T20:18:15.569Z,24.90
2022-10-16T20:20:44.262Z,24.90
2022-10-16T20:23:11.926Z,24.90
2022-10-16T20:25:40.240Z,24.90
2022-10-16T20:28:08.109Z,24.80
2022-10-16T20:30:37.372Z,24.80
2022-10-16T20:33:05.164Z,24.80
2022-10-16T20:35:36.739Z,24.80
2022-10-16T20:38:04.517Z,24.80
2022-10-16T20:40:32.215Z,24.80
2022-10-16T20:42:59.904Z,24.80
2022-10-16T20:45:27.575Z,24.80
2022-10-16T20:47:56.552Z,24.80
2022-10-16T20:50:24.304Z,24.80
2022-10-16T20:52:51.962Z,24.70
2022-10-16T20:55:19.647Z,24.70
2022-10-16T20:57:47.277Z,24.70
2022-10-16T21:00:16.128Z,24.70
2022-10-16T21:02:43.800Z,24.70
2022-10-16T21:05:12.823Z,24.80
2022-10-16T21:07:40.496Z,24.70
2022-10-16T21:10:08.760Z,24.70
2022-10-16T21:12:36.430Z,24.70
2022-10-16T21:15:19.197Z,24.70
2022-10-16T21:17:46.910Z,24.80
2022-10-16T21:20:15.940Z,24.70
2022-10-16T21:22:43.659Z,24.70
2022-10-16T21:25:11.423Z,24.70
2022-10-16T21:27:39.208Z,24.70
2022-10-16T21:30:08.284Z,24.70
2022-10-16T21:32:36.437Z,24.70
2022-10-16T21:35:04.473Z,24.70
2022-10-16T21:37:33.651Z,24.70
2022-10-16T21:40:01.294Z,24.70
2022-10-16T21:42:29.277Z,24.70
2022-10-16T21:44:57.123Z,24.70
2022-10-16T21:47:24.870Z,24.70
2022-10-16T21:49:52.580Z,24.70
2022-10-16T21:52:20.369Z,24.60
2022-10-16T21:54:49.347Z,24.60
2022-10-16T21:57:17.015Z,24.60
2022-10-16T21:59:44.674Z,24.60
2022-10-16T22:02:12.331Z,24.60
2022-10-16T22:04:39.994Z,24.70
2022-10-16T22:07:07.693Z,24.60
2022-10-16T22:09:35.378Z,24.60
2022-10-16T22:12:04.495Z,24.60
2022-10-16T22:14:32.152Z,24.60
2022-10-16T22:16:59.928Z,24.60
2022-10-16T22:19:27.975Z,24.60
2022-10-16T22:21:57.140Z,24.60
2022-10-16T22:24:25.013Z,24.60
2022-10-16T22:26:52.711Z,24.60
2022-10-16T22:29:22.010Z,24.50
2022-10-16T22:31:51.982Z,24.50
2022-10-16T22:34:19.705Z,24.50
2022-10-16T22:36:48.951Z,24.50
2022-10-16T22:39:16.660Z,24.50
2022-10-16T22:41:44.306Z,24.50
2022-10-16T22:44:12.916Z,24.50
2022-10-16T22:46:42.129Z,24.50
2022-10-16T22:49:09.811Z,24.50
2022-10-16T22:51:37.544Z,24.50
2022-10-16T22:54:05.392Z,24.40
2022-10-16T22:56:33.042Z,24.40
2022-10-16T22:59:00.875Z,24.40
2022-10-16T23:01:29.848Z,24.40
2022-10-16T23:03:59.426Z,24.40
2022-10-16T23:06:27.107Z,24.40
2022-10-16T23:08:55.057Z,24.40
2022-10-16T23:11:22.772Z,24.30
2022-10-16T23:13:50.488Z,24.30
2022-10-16T23:16:19.923Z,24.40
2022-10-16T23:18:47.647Z,24.40
2022-10-16T23:21:17.957Z,24.30
2022-10-16T23:23:45.723Z,24.30
2022-10-16T23:26:14.143Z,24.30
2022-10-16T23:28:41.979Z,24.30
2022-10-16T23:31:09.982Z,24.30
2022-10-16T23:33:38.033Z,24.30
2022-10-16T23:36:06.673Z,24.30
2022-10-16T23:38:35.683Z,24.30
2022-10-16T23:41:03.351Z,24.20
2022-10-16T23:43:31.018Z,24.30
2022-10-16T23:45:58.716Z,24.30
2022-10-16T23:48:26.365Z,24.20
2022-10-16T23:50:54.016Z,24.20
2022-10-16T23:53:21.662Z,24.20
2022-10-16T23:55:50.656Z,24.20
2022-10-16T23:58:18.364Z,24.30
